ePrivacy and GPDR Cookie Consent by Cookie Consent
EmailTwitter


Observations de surface / États-Unis / KJFK (74486)

Régions: Québec | Canada | États-Unis | Europe | France | UK | Ailleurs
Station
Affichage
Infos & localisation pour KJFK (74486) | Aide pour décoder les METARs

Observations prises le 2021-04-10 à 21H51 UTC à NEW YORK/JF KENN, NY (KJFK)

Etat du ciel: partiellement nuageux.

Température: 14.0 Celsius

Point de rosée: 11.0 Celsius

Humidité relative: 82%

Vents: Sud-est à 9 km/h ou 5 noeuds.

Pression au niveau moyen de la mer: 101.19 kilopascals.

Calage altimétrique: 101.18 kilopascals ou 29.88 pouces de mercure.

Visibilité horizontale: 10.00 milles terrestres ou 16.00 kilomètres.

Hauteur du plafond: 7620 mètres ( 25000 pieds ).

Observation METAR:

KJFK 102151Z 15005KT 10SM FEW035 BKN250 14/11 A2988 RMK AO2 SLP119 T01440106=